CheckWX is a tool to help pilots better visualize weather data.  It is not intended as a substitute for an official pre-flight weather briefing.

06:48:09 UTC

KMKC TAF
Charles B Wheeler Downtown Airport
Kansas City, Missouri, USA
KMKC 240520Z 2406/2506 VRB03KT P6SM VCSH BKN020 FM240800 VRB03KT P6SM VCSH BKN015 FM241000 VRB04KT P6SM BKN009 FM241700 VRB03KT P6SM BKN015 FM242000 VRB03KT P6SM SCT250

Apr-24@
06:00 UTC

Apr-24 @ 06:00 UTC

Apr-24@
08:00 UTC

Apr-24 @ 08:00 UTC

KMKC 240520Z 2406/2506 VRB03KT P6SM VCSH BKN020
Wind
  • Variable at 3 KTS
Cloud Levels
  • Broken at 2,000' AGL

Apr-24@
08:00 UTC

Apr-24 @ 08:00 UTC

Apr-24@
10:00 UTC

Apr-24 @ 10:00 UTC

FM240800 VRB03KT P6SM VCSH BKN015

From

From Standard forecast or significant change

Wind
  • Variable at 3 KTS
Cloud Levels
  • Broken at 1,500' AGL

Apr-24@
10:00 UTC

Apr-24 @ 10:00 UTC

Apr-24@
17:00 UTC

Apr-24 @ 17:00 UTC

FM241000 VRB04KT P6SM BKN009

From

From Standard forecast or significant change

Wind
  • Variable at 4 KTS
Cloud Levels
  • Broken at 900' AGL

Apr-24@
17:00 UTC

Apr-24 @ 17:00 UTC

Apr-24@
20:00 UTC

Apr-24 @ 20:00 UTC

FM241700 VRB03KT P6SM BKN015

From

From Standard forecast or significant change

Wind
  • Variable at 3 KTS
Cloud Levels
  • Broken at 1,500' AGL

Apr-24@
20:00 UTC

Apr-24 @ 20:00 UTC

Apr-25@
06:00 UTC

Apr-25 @ 06:00 UTC

FM242000 VRB03KT P6SM SCT250

From

From Standard forecast or significant change

Wind
  • Variable at 3 KTS
Cloud Levels
  • Scattered at 25,000' AGL